createdAt,value
2022-09-24T00:01:32.136Z,9.90
2022-09-24T00:04:05.838Z,8.87
2022-09-24T00:06:37.015Z,12.83
2022-09-24T00:09:04.604Z,9.67
2022-09-24T00:11:31.637Z,16.07
2022-09-24T00:13:59.092Z,6.40
2022-09-24T00:16:28.349Z,5.37
2022-09-24T00:18:55.246Z,5.33
2022-09-24T00:21:24.626Z,5.23
2022-09-24T00:23:56.086Z,5.50
2022-09-24T00:26:42.090Z,7.93
2022-09-24T00:29:10.811Z,4.47
2022-09-24T00:31:37.736Z,10.87
2022-09-24T00:34:04.717Z,8.10
2022-09-24T00:36:31.774Z,6.23
2022-09-24T00:39:00.167Z,11.53
2022-09-24T00:41:30.167Z,4.97
2022-09-24T00:43:57.314Z,4.60
2022-09-24T00:46:39.237Z,6.37
2022-09-24T00:49:12.640Z,7.50
2022-09-24T00:51:41.756Z,5.07
2022-09-24T00:54:17.121Z,5.13
2022-09-24T00:56:48.061Z,4.20
2022-09-24T00:59:18.355Z,6.67
2022-09-24T01:01:47.212Z,4.73
2022-09-24T01:04:16.232Z,5.10
2022-09-24T01:06:43.264Z,6.97
2022-09-24T01:09:10.353Z,9.37
2022-09-24T01:11:45.884Z,6.03
2022-09-24T01:14:42.423Z,4.10
2022-09-24T01:17:32.175Z,5.30
2022-09-24T01:20:29.712Z,4.33
2022-09-24T01:22:59.151Z,4.60
2022-09-24T01:26:08.100Z,6.90
2022-09-24T01:28:43.440Z,5.73
2022-09-24T01:31:46.944Z,5.63
2022-09-24T01:34:27.016Z,5.50
2022-09-24T01:36:57.479Z,6.37
2022-09-24T01:39:25.911Z,6.70
2022-09-24T01:41:53.549Z,7.93
2022-09-24T01:44:20.670Z,7.40
2022-09-24T01:46:47.723Z,4.90
2022-09-24T01:49:14.391Z,4.87
2022-09-24T01:51:50.140Z,5.20
2022-09-24T01:54:16.632Z,6.87
2022-09-24T01:57:00.631Z,5.53
2022-09-24T01:59:37.911Z,6.13
2022-09-24T02:02:07.016Z,4.87
2022-09-24T02:04:41.863Z,8.40
2022-09-24T02:07:33.762Z,5.03
2022-09-24T02:10:00.536Z,5.27
2022-09-24T02:12:42.320Z,4.63
2022-09-24T02:15:12.998Z,4.43
2022-09-24T02:17:44.628Z,8.37
2022-09-24T02:20:20.065Z,7.30
2022-09-24T02:22:49.452Z,5.37
2022-09-24T02:25:20.929Z,4.27
2022-09-24T02:27:47.586Z,5.20
2022-09-24T02:30:14.784Z,5.90
2022-09-24T02:32:43.192Z,5.83
2022-09-24T02:35:11.910Z,6.13
2022-09-24T02:37:41.749Z,5.40
2022-09-24T02:40:12.258Z,6.00
2022-09-24T02:42:41.059Z,7.83
2022-09-24T02:45:08.323Z,5.10
2022-09-24T02:47:34.923Z,6.30
2022-09-24T02:50:01.566Z,4.83
2022-09-24T02:52:28.201Z,5.00
2022-09-24T02:54:54.773Z,5.10
2022-09-24T02:57:21.405Z,4.93
2022-09-24T02:59:48.057Z,4.93
2022-09-24T03:02:15.296Z,5.40
2022-09-24T03:04:42.185Z,4.97
2022-09-24T03:07:09.346Z,4.90
2022-09-24T03:09:35.983Z,5.70
2022-09-24T03:12:02.597Z,4.40
2022-09-24T03:14:29.205Z,6.30
2022-09-24T03:16:55.768Z,9.03
2022-09-24T03:19:22.401Z,4.60
2022-09-24T03:21:48.968Z,5.37
2022-09-24T03:24:15.560Z,7.83
2022-09-24T03:26:42.235Z,4.73
2022-09-24T03:29:10.000Z,5.47
2022-09-24T03:31:36.679Z,6.13
2022-09-24T03:34:03.508Z,6.57
2022-09-24T03:36:30.246Z,4.83
2022-09-24T03:38:57.007Z,5.80
2022-09-24T03:41:25.440Z,9.07
2022-09-24T03:43:52.051Z,6.63
2022-09-24T03:46:19.182Z,7.10
2022-09-24T03:48:47.322Z,4.90
2022-09-24T03:51:18.653Z,5.27
2022-09-24T03:53:45.947Z,5.20
2022-09-24T03:56:13.116Z,5.30
2022-09-24T03:58:40.548Z,5.23
2022-09-24T04:01:08.712Z,6.00
2022-09-24T04:03:36.354Z,5.60
2022-09-24T04:06:04.049Z,4.83
2022-09-24T04:08:31.700Z,6.10
2022-09-24T04:10:58.815Z,6.00
2022-09-24T04:13:25.812Z,5.73
2022-09-24T04:15:53.753Z,5.20
2022-09-24T04:18:20.916Z,6.70
2022-09-24T04:20:47.536Z,5.73
2022-09-24T04:23:14.713Z,5.33
2022-09-24T04:25:41.492Z,6.93
2022-09-24T04:28:09.894Z,7.33
2022-09-24T04:30:38.032Z,6.40
2022-09-24T04:33:05.190Z,7.23
2022-09-24T04:35:33.215Z,5.43
2022-09-24T04:38:00.461Z,5.30
2022-09-24T04:40:27.485Z,5.00
2022-09-24T04:42:54.449Z,12.57
2022-09-24T04:45:21.649Z,5.27
2022-09-24T04:47:53.588Z,5.63
2022-09-24T04:50:20.995Z,9.23
2022-09-24T04:52:53.635Z,6.77
2022-09-24T04:55:20.787Z,5.73
2022-09-24T04:57:47.694Z,8.47
2022-09-24T05:00:17.625Z,7.83
2022-09-24T05:02:44.730Z,5.90
2022-09-24T05:05:12.631Z,14.30
2022-09-24T05:07:39.813Z,9.87
2022-09-24T05:10:06.906Z,9.47
2022-09-24T05:12:36.347Z,7.70
2022-09-24T05:15:04.349Z,8.10
2022-09-24T05:17:31.337Z,6.90
2022-09-24T05:19:59.502Z,7.27
2022-09-24T05:22:27.931Z,6.97
2022-09-24T05:24:54.640Z,8.03
2022-09-24T05:27:23.154Z,6.43
2022-09-24T05:29:50.410Z,5.90
2022-09-24T05:32:19.918Z,6.13
2022-09-24T05:34:47.267Z,7.47
2022-09-24T05:37:15.053Z,9.13
2022-09-24T05:39:41.853Z,6.83
2022-09-24T05:42:14.319Z,6.70
2022-09-24T05:44:41.283Z,6.60
2022-09-24T05:47:08.696Z,9.37
2022-09-24T05:49:35.590Z,8.70
2022-09-24T05:52:02.461Z,8.27
2022-09-24T05:54:29.063Z,8.57
2022-09-24T05:56:55.653Z,6.53
2022-09-24T05:59:22.267Z,7.50
2022-09-24T06:01:49.294Z,6.90
2022-09-24T06:04:16.352Z,7.23
2022-09-24T06:06:43.514Z,5.70
2022-09-24T06:09:10.351Z,6.30
2022-09-24T06:11:40.340Z,6.63
2022-09-24T06:14:08.513Z,7.13
2022-09-24T06:16:35.494Z,8.47
2022-09-24T06:19:02.290Z,7.73
2022-09-24T06:21:28.986Z,5.50
2022-09-24T06:23:55.661Z,5.90
2022-09-24T06:26:22.378Z,8.80
2022-09-24T06:28:49.063Z,6.20
2022-09-24T06:31:16.050Z,6.37
2022-09-24T06:33:43.083Z,6.00
2022-09-24T06:36:10.265Z,8.93
2022-09-24T06:38:36.928Z,7.90
2022-09-24T06:41:05.512Z,6.70
2022-09-24T06:43:33.427Z,6.97
2022-09-24T06:46:00.767Z,10.80
2022-09-24T06:48:28.816Z,15.53
2022-09-24T06:50:56.424Z,12.03
2022-09-24T06:53:23.254Z,20.97
2022-09-24T06:55:49.999Z,12.83
2022-09-24T06:58:22.100Z,16.07
2022-09-24T07:00:59.820Z,18.23
2022-09-24T07:03:28.217Z,14.97
2022-09-24T07:05:55.698Z,18.70
2022-09-24T07:08:22.680Z,22.50
2022-09-24T07:10:49.925Z,18.50
2022-09-24T07:13:17.144Z,20.30
2022-09-24T07:15:44.943Z,15.90
2022-09-24T07:18:12.252Z,11.73
2022-09-24T07:20:39.545Z,10.93
2022-09-24T07:23:08.380Z,11.53
2022-09-24T07:25:38.265Z,13.33
2022-09-24T07:28:10.636Z,9.93
2022-09-24T07:30:38.038Z,9.00
2022-09-24T07:33:05.204Z,9.50
2022-09-24T07:35:31.940Z,7.60
2022-09-24T07:38:16.804Z,7.20
2022-09-24T07:40:44.812Z,6.20
2022-09-24T07:43:13.946Z,6.00
2022-09-24T07:45:42.500Z,7.53
2022-09-24T07:48:10.020Z,17.73
2022-09-24T07:50:40.238Z,6.47
2022-09-24T07:53:06.928Z,6.27
2022-09-24T07:55:39.370Z,6.27
2022-09-24T07:58:08.291Z,7.37
2022-09-24T08:00:35.170Z,5.63
2022-09-24T08:03:03.350Z,6.10
2022-09-24T08:05:30.065Z,5.30
2022-09-24T08:07:57.795Z,5.30
2022-09-24T08:10:26.421Z,7.03
2022-09-24T08:12:53.734Z,6.83
2022-09-24T08:15:22.639Z,6.93
2022-09-24T08:17:49.608Z,6.07
2022-09-24T08:20:16.380Z,5.90
2022-09-24T08:22:43.057Z,7.60
2022-09-24T08:25:09.732Z,5.63
2022-09-24T08:27:37.585Z,7.37
2022-09-24T08:30:05.890Z,5.83
2022-09-24T08:32:32.812Z,5.23
2022-09-24T08:34:59.482Z,5.90
2022-09-24T08:37:28.126Z,5.77
2022-09-24T08:39:54.861Z,5.83
2022-09-24T08:42:55.463Z,5.70
2022-09-24T08:45:40.563Z,5.77
2022-09-24T08:48:15.682Z,5.53
2022-09-24T08:50:52.705Z,7.33
2022-09-24T08:53:26.342Z,6.00
2022-09-24T08:55:55.666Z,5.23
2022-09-24T08:58:53.048Z,5.73
2022-09-24T09:01:50.465Z,5.63
2022-09-24T09:04:32.531Z,5.60
2022-09-24T09:07:04.918Z,6.13
2022-09-24T09:09:43.691Z,5.20
2022-09-24T09:12:17.767Z,5.73
2022-09-24T09:14:59.530Z,4.70
2022-09-24T09:17:37.651Z,5.70
2022-09-24T09:20:10.832Z,6.00
2022-09-24T09:22:47.115Z,5.37
2022-09-24T09:25:25.926Z,5.70
2022-09-24T09:28:01.915Z,6.20
2022-09-24T09:30:53.741Z,5.87
2022-09-24T09:33:54.831Z,5.17
2022-09-24T09:36:40.096Z,6.20
2022-09-24T09:39:41.600Z,7.00
2022-09-24T09:42:17.575Z,6.40
2022-09-24T09:44:46.070Z,6.53
2022-09-24T09:47:25.001Z,6.10
2022-09-24T09:49:57.640Z,6.43
2022-09-24T09:52:28.634Z,5.97
2022-09-24T09:54:56.004Z,10.37
2022-09-24T09:57:25.332Z,6.87
2022-09-24T09:59:54.383Z,6.83
2022-09-24T10:02:31.508Z,6.83
2022-09-24T10:05:00.928Z,6.60
2022-09-24T10:07:28.210Z,6.00
2022-09-24T10:10:18.557Z,7.53
2022-09-24T10:12:45.371Z,7.40
2022-09-24T10:15:15.289Z,6.83
2022-09-24T10:17:43.989Z,6.93
2022-09-24T10:20:16.662Z,12.13
2022-09-24T10:22:51.897Z,7.43
2022-09-24T10:25:28.318Z,7.57
2022-09-24T10:28:18.600Z,6.80
2022-09-24T10:30:53.030Z,6.77
2022-09-24T10:33:20.350Z,7.40
2022-09-24T10:35:47.175Z,10.03
2022-09-24T10:38:19.082Z,10.60
2022-09-24T10:40:47.137Z,8.10
2022-09-24T10:43:21.888Z,7.80
2022-09-24T10:46:07.524Z,6.70
2022-09-24T10:48:44.630Z,7.20
2022-09-24T10:51:42.198Z,6.70
2022-09-24T10:54:27.725Z,6.03
2022-09-24T10:56:57.299Z,5.90
2022-09-24T10:59:36.079Z,5.13
2022-09-24T11:02:02.697Z,5.63
2022-09-24T11:04:41.478Z,6.30
2022-09-24T11:07:39.318Z,6.90
2022-09-24T11:10:20.960Z,9.33
2022-09-24T11:12:53.841Z,9.27
2022-09-24T11:15:41.982Z,9.30
2022-09-24T11:18:19.394Z,6.90
2022-09-24T11:21:04.531Z,8.83
2022-09-24T11:23:49.586Z,6.90
2022-09-24T11:26:29.626Z,6.40
2022-09-24T11:29:44.476Z,7.43
2022-09-24T11:32:29.700Z,6.63
2022-09-24T11:35:21.364Z,9.50
2022-09-24T11:38:00.489Z,7.03
2022-09-24T11:41:15.431Z,7.20
2022-09-24T11:44:03.739Z,7.07
2022-09-24T11:47:08.081Z,6.93
2022-09-24T11:50:04.562Z,6.60
2022-09-24T11:52:40.885Z,7.27
2022-09-24T11:55:13.521Z,6.33
2022-09-24T11:57:45.025Z,6.73
2022-09-24T12:00:22.193Z,6.33
2022-09-24T12:03:25.875Z,7.57
2022-09-24T12:06:02.863Z,9.20
2022-09-24T12:08:39.849Z,6.40
2022-09-24T12:11:06.409Z,6.57
2022-09-24T12:13:47.798Z,6.73
2022-09-24T12:16:26.114Z,7.53
2022-09-24T12:18:59.850Z,7.00
2022-09-24T12:21:43.257Z,7.03
2022-09-24T12:24:34.803Z,9.83
2022-09-24T12:27:07.269Z,9.63
2022-09-24T12:30:16.858Z,11.00
2022-09-24T12:32:54.399Z,11.97
2022-09-24T12:35:42.950Z,11.50
2022-09-24T12:38:16.464Z,8.53
2022-09-24T12:40:45.962Z,7.37
2022-09-24T12:43:35.103Z,7.87
2022-09-24T12:46:04.738Z,6.50
2022-09-24T12:48:36.299Z,7.93
2022-09-24T12:51:06.679Z,11.87
2022-09-24T12:53:35.895Z,10.00
2022-09-24T12:56:04.477Z,23.87
2022-09-24T12:58:30.985Z,7.70
2022-09-24T13:01:13.378Z,12.17
2022-09-24T13:03:46.682Z,28.87
2022-09-24T13:06:31.408Z,34.90
2022-09-24T13:08:59.367Z,26.63
2022-09-24T13:11:37.509Z,9.63
2022-09-24T13:14:13.137Z,16.90
2022-09-24T13:16:42.312Z,7.57
2022-09-24T13:19:27.848Z,59.37
2022-09-24T13:22:00.189Z,133.40
2022-09-24T13:24:36.172Z,55.67
2022-09-24T13:27:31.943Z,62.60
2022-09-24T13:30:09.618Z,58.40
2022-09-24T13:32:46.662Z,56.20
2022-09-24T13:35:22.334Z,84.70
2022-09-24T13:38:25.964Z,16.53
2022-09-24T13:40:59.164Z,15.40
2022-09-24T13:43:51.116Z,7.77
2022-09-24T13:46:20.286Z,7.60
2022-09-24T13:48:57.168Z,7.67
2022-09-24T13:51:28.950Z,11.83
2022-09-24T13:54:10.750Z,7.13
2022-09-24T13:56:37.508Z,7.50
2022-09-24T13:59:07.040Z,7.70
2022-09-24T14:01:41.193Z,8.03
2022-09-24T14:04:20.719Z,7.90
2022-09-24T14:06:53.523Z,7.50
2022-09-24T14:09:23.154Z,7.63
2022-09-24T14:11:51.990Z,7.00
2022-09-24T14:14:21.227Z,7.07
2022-09-24T14:16:47.888Z,7.87
2022-09-24T14:19:16.051Z,8.07
2022-09-24T14:22:10.657Z,8.90
2022-09-24T14:24:45.449Z,6.63
2022-09-24T14:27:17.566Z,7.43
2022-09-24T14:29:49.370Z,6.97
2022-09-24T14:32:36.980Z,11.13
2022-09-24T14:35:40.487Z,6.43
2022-09-24T14:38:20.478Z,6.53
2022-09-24T14:40:57.836Z,7.70
2022-09-24T14:43:46.202Z,7.50
2022-09-24T14:46:22.232Z,10.00
2022-09-24T14:48:49.360Z,8.43
2022-09-24T14:51:28.250Z,7.10
2022-09-24T14:54:19.200Z,7.80
2022-09-24T14:56:45.907Z,7.13
2022-09-24T14:59:26.451Z,7.13
2022-09-24T15:02:12.313Z,8.07
2022-09-24T15:04:39.169Z,6.70
2022-09-24T15:07:05.939Z,7.90
2022-09-24T15:09:32.669Z,9.13
2022-09-24T15:12:10.026Z,7.67
2022-09-24T15:14:36.707Z,8.33
2022-09-24T15:17:21.570Z,8.90
2022-09-24T15:19:48.309Z,7.93
2022-09-24T15:22:15.239Z,10.30
2022-09-24T15:24:41.826Z,14.73
2022-09-24T15:27:23.694Z,8.80
2022-09-24T15:29:50.685Z,11.10
2022-09-24T15:32:19.505Z,8.13
2022-09-24T15:34:47.020Z,15.93
2022-09-24T15:37:18.178Z,10.53
2022-09-24T15:39:49.143Z,8.63
2022-09-24T15:42:21.151Z,9.90
2022-09-24T15:44:48.854Z,7.37
2022-09-24T15:47:15.489Z,8.03
2022-09-24T15:49:42.420Z,6.90
2022-09-24T15:52:26.437Z,7.50
2022-09-24T15:54:54.861Z,9.60
2022-09-24T15:57:22.691Z,10.43
2022-09-24T15:59:50.146Z,10.00
2022-09-24T16:02:21.192Z,20.57
2022-09-24T16:04:47.871Z,19.77
2022-09-24T16:07:14.500Z,24.57
2022-09-24T16:09:41.220Z,19.47
2022-09-24T16:12:07.949Z,15.57
2022-09-24T16:14:34.723Z,16.60
2022-09-24T16:17:01.316Z,20.93
2022-09-24T16:19:29.478Z,38.70
2022-09-24T16:21:56.603Z,16.90
2022-09-24T16:24:23.339Z,25.10
2022-09-24T16:26:49.985Z,41.03
2022-09-24T16:29:18.042Z,51.57
2022-09-24T16:31:45.356Z,21.20
2022-09-24T16:34:12.316Z,13.77
2022-09-24T16:36:38.947Z,20.17
2022-09-24T16:39:05.720Z,20.20
2022-09-24T16:41:34.477Z,18.07
2022-09-24T16:44:01.723Z,15.77
2022-09-24T16:46:28.574Z,17.13
2022-09-24T16:48:55.380Z,10.33
2022-09-24T16:51:22.148Z,11.47
2022-09-24T16:53:49.444Z,10.10
2022-09-24T16:56:19.604Z,9.17
2022-09-24T16:58:47.257Z,10.97
2022-09-24T17:01:16.531Z,22.83
2022-09-24T17:03:43.615Z,16.43
2022-09-24T17:06:19.489Z,14.70
2022-09-24T17:09:04.707Z,14.90
2022-09-24T17:11:31.366Z,17.17
2022-09-24T17:13:57.928Z,15.43
2022-09-24T17:16:27.450Z,17.00
2022-09-24T17:18:54.585Z,14.80
2022-09-24T17:21:22.017Z,17.77
2022-09-24T17:23:49.329Z,18.67
2022-09-24T17:26:18.589Z,14.63
2022-09-24T17:28:47.028Z,13.33
2022-09-24T17:31:16.941Z,14.33
2022-09-24T17:33:44.503Z,12.83
2022-09-24T17:36:14.064Z,12.87
2022-09-24T17:38:40.855Z,13.83
2022-09-24T17:41:11.359Z,14.53
2022-09-24T17:43:40.702Z,14.47
2022-09-24T17:46:14.576Z,16.03
2022-09-24T17:48:44.849Z,17.63
2022-09-24T17:51:15.881Z,18.93
2022-09-24T17:53:43.031Z,14.57
2022-09-24T17:56:11.830Z,16.50
2022-09-24T17:58:41.332Z,15.23
2022-09-24T18:01:13.669Z,14.70
2022-09-24T18:03:40.990Z,14.33
2022-09-24T18:06:09.989Z,12.67
2022-09-24T18:08:41.693Z,12.40
2022-09-24T18:11:17.561Z,12.40
2022-09-24T18:13:45.100Z,12.00
2022-09-24T18:16:16.368Z,12.90
2022-09-24T18:18:44.065Z,13.43
2022-09-24T18:21:13.161Z,13.93
2022-09-24T18:23:40.346Z,13.20
2022-09-24T18:26:18.629Z,15.53
2022-09-24T18:28:57.891Z,13.40
2022-09-24T18:31:28.188Z,14.27
2022-09-24T18:33:58.071Z,15.40
2022-09-24T18:36:28.220Z,13.17
2022-09-24T18:38:56.002Z,12.83
2022-09-24T18:41:26.533Z,15.07
2022-09-24T18:43:54.338Z,15.43
2022-09-24T18:46:22.633Z,20.10
2022-09-24T18:48:51.906Z,13.37
2022-09-24T18:51:30.747Z,14.07
2022-09-24T18:54:10.627Z,14.07
2022-09-24T18:56:37.351Z,14.70
2022-09-24T18:59:11.320Z,12.67
2022-09-24T19:01:39.524Z,12.63
2022-09-24T19:04:09.341Z,15.63
2022-09-24T19:06:41.687Z,13.80
2022-09-24T19:09:10.445Z,12.40
2022-09-24T19:11:37.614Z,12.80
2022-09-24T19:14:04.231Z,15.47
2022-09-24T19:16:31.255Z,13.10
2022-09-24T19:18:59.765Z,12.67
2022-09-24T19:21:27.178Z,14.77
2022-09-24T19:23:56.474Z,13.03
2022-09-24T19:26:25.982Z,12.63
2022-09-24T19:28:53.555Z,13.80
2022-09-24T19:31:31.886Z,13.87
2022-09-24T19:34:02.959Z,15.80
2022-09-24T19:36:30.033Z,22.60
2022-09-24T19:38:57.851Z,22.93
2022-09-24T19:41:26.634Z,24.30
2022-09-24T19:43:58.503Z,20.30
2022-09-24T19:46:27.165Z,16.03
2022-09-24T19:48:55.733Z,17.27
2022-09-24T19:51:31.260Z,12.90
2022-09-24T19:54:04.116Z,11.53
2022-09-24T19:56:31.864Z,11.90
2022-09-24T19:59:00.620Z,12.70
2022-09-24T20:01:32.199Z,12.10
2022-09-24T20:04:01.942Z,12.67
2022-09-24T20:06:31.199Z,13.20
2022-09-24T20:08:59.346Z,14.50
2022-09-24T20:11:26.510Z,13.80
2022-09-24T20:13:55.435Z,14.07
2022-09-24T20:16:27.456Z,12.93
2022-09-24T20:18:57.522Z,12.53
2022-09-24T20:21:29.285Z,14.53
2022-09-24T20:23:58.036Z,15.13
2022-09-24T20:26:44.361Z,12.90
2022-09-24T20:29:13.866Z,13.23
2022-09-24T20:31:51.156Z,13.23
2022-09-24T20:34:19.317Z,14.57
2022-09-24T20:36:45.952Z,15.27
2022-09-24T20:39:12.818Z,15.40
2022-09-24T20:41:39.526Z,16.23
2022-09-24T20:44:06.223Z,15.70
2022-09-24T20:46:32.997Z,16.37
2022-09-24T20:49:00.149Z,19.87
2022-09-24T20:51:29.557Z,19.90
2022-09-24T20:53:58.238Z,22.27
2022-09-24T20:56:25.028Z,20.87
2022-09-24T20:58:53.039Z,19.00
2022-09-24T21:01:21.336Z,19.97
2022-09-24T21:03:50.116Z,18.30
2022-09-24T21:06:17.994Z,18.37
2022-09-24T21:08:46.167Z,18.17
2022-09-24T21:11:16.217Z,25.03
2022-09-24T21:13:45.337Z,19.30
2022-09-24T21:16:12.333Z,18.30
2022-09-24T21:18:40.964Z,20.13
2022-09-24T21:21:15.452Z,19.33
2022-09-24T21:23:43.802Z,23.90
2022-09-24T21:26:18.419Z,23.93
2022-09-24T21:28:46.792Z,20.40
2022-09-24T21:31:14.901Z,22.53
2022-09-24T21:33:46.453Z,23.00
2022-09-24T21:36:18.578Z,23.70
2022-09-24T21:39:07.139Z,23.03
2022-09-24T21:41:40.075Z,22.40
2022-09-24T21:44:09.133Z,22.10
2022-09-24T21:46:35.894Z,21.77
2022-09-24T21:49:03.049Z,20.17
2022-09-24T21:51:30.504Z,18.60
2022-09-24T21:54:02.881Z,20.10
2022-09-24T21:56:31.327Z,21.30
2022-09-24T21:58:59.017Z,22.97
2022-09-24T22:01:28.879Z,21.00
2022-09-24T22:03:58.260Z,22.70
2022-09-24T22:06:29.106Z,20.93
2022-09-24T22:08:58.004Z,19.87
2022-09-24T22:11:26.396Z,21.97
2022-09-24T22:13:54.365Z,24.73
2022-09-24T22:16:21.731Z,23.30
2022-09-24T22:18:48.469Z,24.17
2022-09-24T22:21:15.770Z,24.73
2022-09-24T22:23:42.463Z,28.53
2022-09-24T22:26:10.213Z,21.33
2022-09-24T22:28:37.871Z,22.27
2022-09-24T22:31:10.529Z,24.23
2022-09-24T22:33:55.994Z,22.23
2022-09-24T22:36:23.630Z,23.17
2022-09-24T22:38:54.807Z,22.37
2022-09-24T22:41:21.555Z,22.30
2022-09-24T22:43:48.308Z,23.30
2022-09-24T22:46:16.130Z,23.87
2022-09-24T22:48:47.554Z,22.70
2022-09-24T22:51:16.567Z,22.53
2022-09-24T22:53:43.556Z,23.40
2022-09-24T22:56:13.252Z,25.07
2022-09-24T22:59:06.860Z,23.27
2022-09-24T23:01:39.243Z,22.03
2022-09-24T23:04:08.822Z,23.40
2022-09-24T23:06:49.055Z,24.37
2022-09-24T23:13:10.981Z,26.80
2022-09-24T23:15:37.609Z,27.87
2022-09-24T23:18:04.220Z,24.70
2022-09-24T23:20:30.848Z,24.20
2022-09-24T23:22:58.368Z,31.80
2022-09-24T23:25:25.007Z,29.13
2022-09-24T23:27:51.690Z,32.27
2022-09-24T23:30:18.317Z,37.33
2022-09-24T23:32:44.980Z,34.37
2022-09-24T23:35:11.574Z,31.83
2022-09-24T23:37:38.153Z,37.83
2022-09-24T23:40:05.229Z,32.10
2022-09-24T23:42:31.972Z,38.70
2022-09-24T23:44:58.641Z,34.23
2022-09-24T23:47:25.241Z,44.60
2022-09-24T23:49:51.901Z,43.77
2022-09-24T23:52:18.544Z,35.50
2022-09-24T23:54:48.174Z,37.93
2022-09-24T23:57:17.872Z,40.70
2022-09-24T23:59:49.130Z,37.70
